Time;durP1;ratioP1;P1;durP2;ratioP2;P2;SDS_P1;SDS_P2;PMS_P1;PMS_P2;Temp;Humidity;BMP_temperature;BMP_pressure;BME280_temperature;BME280_humidity;BME280_pressure;Samples;Min_cycle;Max_cycle;Signal;HPM_P1;HPM_P2
2024/01/24 00:02:15;;;;;;;10.63;3.28;;;10.80;99.90;;;;;;5057499;28;20037;-62
2024/01/24 00:04:40;;;;;;;11.35;4.25;;;10.80;99.90;;;;;;5059043;28;20676;-64
2024/01/24 00:07:06;;;;;;;10.52;3.28;;;10.80;99.90;;;;;;5056134;28;20021;-62
2024/01/24 00:09:33;;;;;;;13.63;4.43;;;10.90;99.90;;;;;;5060903;28;20029;-62
2024/01/24 00:11:59;;;;;;;11.32;3.65;;;11.00;99.90;;;;;;5062717;28;20119;-63
2024/01/24 00:14:26;;;;;;;9.52;3.70;;;11.00;99.90;;;;;;5074403;28;21366;-63
2024/01/24 00:16:52;;;;;;;11.85;3.45;;;11.00;99.90;;;;;;5082010;28;20028;-63
2024/01/24 00:19:18;;;;;;;12.20;3.80;;;11.00;99.90;;;;;;5079958;28;20035;-63
2024/01/24 00:21:43;;;;;;;14.88;3.53;;;11.00;99.90;;;;;;5079593;28;20170;-63
2024/01/24 00:24:09;;;;;;;11.85;4.03;;;11.00;99.90;;;;;;5071730;28;20383;-63
2024/01/24 00:26:38;;;;;;;9.68;3.20;;;11.00;99.90;;;;;;5077321;28;20028;-63
2024/01/24 00:29:04;;;;;;;7.82;2.67;;;11.00;99.90;;;;;;5076174;28;20171;-62
2024/01/24 00:31:29;;;;;;;12.80;3.95;;;11.00;99.90;;;;;;5077974;28;20444;-63
2024/01/24 00:33:55;;;;;;;9.45;3.90;;;11.00;99.90;;;;;;5073384;28;20100;-63
2024/01/24 00:36:21;;;;;;;11.23;3.72;;;11.00;99.90;;;;;;5078280;28;20111;-63
2024/01/24 00:38:47;;;;;;;9.02;3.35;;;11.00;99.90;;;;;;5077715;28;20352;-63
2024/01/24 00:41:13;;;;;;;10.75;3.30;;;11.00;99.90;;;;;;5076094;28;20039;-63
2024/01/24 00:43:38;;;;;;;8.68;3.42;;;11.00;99.90;;;;;;5078196;28;20020;-63
2024/01/24 00:46:04;;;;;;;7.55;2.95;;;11.00;99.90;;;;;;5080206;28;20032;-63
2024/01/24 00:48:30;;;;;;;8.68;3.75;;;11.00;99.90;;;;;;5079032;28;20243;-63
2024/01/24 00:50:55;;;;;;;10.45;3.03;;;11.10;99.90;;;;;;5081073;28;20137;-63
2024/01/24 00:53:21;;;;;;;9.60;2.83;;;11.20;99.90;;;;;;5076503;28;20052;-63
2024/01/24 00:55:47;;;;;;;8.35;3.03;;;11.10;99.90;;;;;;5079661;28;20095;-63
2024/01/24 00:58:13;;;;;;;10.43;3.58;;;11.20;99.90;;;;;;5079398;28;20131;-63
2024/01/24 01:00:39;;;;;;;8.55;2.95;;;11.20;99.90;;;;;;5077594;28;20520;-63
2024/01/24 01:03:05;;;;;;;9.80;3.67;;;11.30;99.90;;;;;;5076981;28;20115;-63
2024/01/24 01:05:30;;;;;;;9.45;4.13;;;11.30;99.90;;;;;;5075559;28;20032;-62
2024/01/24 01:07:56;;;;;;;9.45;3.35;;;11.30;99.90;;;;;;5079879;28;20028;-63
2024/01/24 01:10:21;;;;;;;12.23;4.20;;;11.30;99.90;;;;;;5078332;28;20439;-64
2024/01/24 01:12:47;;;;;;;7.35;2.88;;;11.30;99.90;;;;;;5075893;28;20138;-63
2024/01/24 01:15:13;;;;;;;8.98;3.05;;;11.40;99.90;;;;;;5077021;28;20139;-64
2024/01/24 01:17:38;;;;;;;8.48;2.85;;;11.40;99.90;;;;;;5082154;28;20095;-64
2024/01/24 01:20:09;;;;;;;7.72;2.80;;;11.40;99.90;;;;;;5079273;28;20012;-64
2024/01/24 01:22:35;;;;;;;10.25;3.33;;;11.50;99.90;;;;;;5081057;28;20111;-63
2024/01/24 01:25:01;;;;;;;6.60;2.70;;;11.40;99.90;;;;;;5082913;28;20167;-63
2024/01/24 01:27:26;;;;;;;10.95;3.90;;;11.40;99.90;;;;;;5080091;28;20021;-64
2024/01/24 01:29:52;;;;;;;8.50;3.25;;;11.50;99.90;;;;;;5083662;28;20020;-63
2024/01/24 01:32:17;;;;;;;10.85;3.33;;;11.50;99.90;;;;;;5082548;28;20169;-63
2024/01/24 01:34:43;;;;;;;9.55;2.83;;;11.60;99.90;;;;;;5078552;28;20115;-65
2024/01/24 01:37:09;;;;;;;10.18;3.10;;;11.60;99.90;;;;;;5082030;28;20039;-64
2024/01/24 01:39:34;;;;;;;11.95;3.25;;;11.70;99.90;;;;;;5080491;28;20027;-65
2024/01/24 01:42:00;;;;;;;8.68;3.42;;;11.80;99.90;;;;;;5080294;28;20020;-64
2024/01/24 01:44:26;;;;;;;9.13;2.90;;;11.70;99.90;;;;;;5079728;28;20387;-64
2024/01/24 01:46:52;;;;;;;9.57;3.47;;;11.80;99.90;;;;;;5083186;28;20406;-65
2024/01/24 01:49:18;;;;;;;10.50;2.80;;;11.80;99.90;;;;;;5086462;28;20028;-65
2024/01/24 01:51:45;;;;;;;8.45;3.17;;;12.00;99.90;;;;;;5084205;28;20021;-65
2024/01/24 01:54:13;;;;;;;10.93;3.40;;;12.00;99.90;;;;;;5082328;28;20394;-65
2024/01/24 01:56:39;;;;;;;8.50;2.38;;;12.10;99.90;;;;;;5082125;28;20423;-65
2024/01/24 01:59:05;;;;;;;9.70;3.03;;;12.10;99.90;;;;;;5082501;28;20027;-65
2024/01/24 02:01:31;;;;;;;8.48;2.63;;;12.10;99.90;;;;;;5081778;28;20043;-65
2024/01/24 02:03:57;;;;;;;7.10;2.33;;;12.10;99.90;;;;;;5081527;28;20383;-65
2024/01/24 02:06:23;;;;;;;8.63;2.28;;;12.20;99.90;;;;;;5079412;28;20024;-64
2024/01/24 02:08:48;;;;;;;6.93;2.53;;;12.20;99.90;;;;;;5081351;28;20178;-65
2024/01/24 02:11:14;;;;;;;9.32;2.80;;;12.20;99.90;;;;;;5085125;28;20072;-65
2024/01/24 02:13:40;;;;;;;7.70;2.42;;;12.20;99.90;;;;;;5079237;28;20052;-65
2024/01/24 02:16:06;;;;;;;7.65;2.30;;;12.30;99.90;;;;;;5083499;28;20111;-65
2024/01/24 02:18:32;;;;;;;8.10;2.40;;;12.30;99.90;;;;;;5080784;28;20029;-64
2024/01/24 02:20:57;;;;;;;6.43;2.63;;;12.10;99.90;;;;;;5082395;28;20032;-64
2024/01/24 02:23:25;;;;;;;8.02;2.72;;;12.00;99.90;;;;;;5081571;28;20463;-64
2024/01/24 02:25:52;;;;;;;7.65;2.50;;;11.80;99.90;;;;;;5083553;28;20028;-64
2024/01/24 02:28:18;;;;;;;7.18;2.58;;;11.80;99.90;;;;;;5078504;28;20028;-64
2024/01/24 02:30:44;;;;;;;7.47;2.70;;;11.80;99.90;;;;;;5079201;28;20033;-64
2024/01/24 02:33:10;;;;;;;7.63;2.45;;;11.80;99.90;;;;;;5080594;28;20023;-64
2024/01/24 02:35:36;;;;;;;8.90;2.45;;;11.80;99.90;;;;;;5082146;28;20047;-64
2024/01/24 02:38:01;;;;;;;6.32;2.45;;;11.80;99.90;;;;;;5081201;28;20024;-65
2024/01/24 02:40:27;;;;;;;9.05;2.83;;;11.80;99.90;;;;;;5080477;28;20111;-64
2024/01/24 02:42:53;;;;;;;7.07;2.42;;;11.90;99.90;;;;;;5079034;28;20441;-64
2024/01/24 02:45:19;;;;;;;9.30;2.55;;;11.90;99.90;;;;;;5082155;28;20103;-65
2024/01/24 02:47:44;;;;;;;5.97;2.20;;;11.90;99.90;;;;;;5079374;28;20029;-64
2024/01/24 02:50:12;;;;;;;7.32;2.72;;;11.80;99.90;;;;;;5080100;28;20020;-64
2024/01/24 02:52:38;;;;;;;7.32;2.75;;;11.80;99.90;;;;;;5082183;28;20023;-64
2024/01/24 02:55:04;;;;;;;7.25;2.47;;;11.80;99.90;;;;;;5079040;28;20040;-64
2024/01/24 02:57:30;;;;;;;8.88;2.33;;;11.80;99.90;;;;;;5081413;28;20353;-64
2024/01/24 02:59:55;;;;;;;7.95;2.40;;;11.80;99.90;;;;;;5079935;28;20102;-64
2024/01/24 03:02:21;;;;;;;8.00;2.40;;;11.80;99.90;;;;;;5079128;28;20028;-63
2024/01/24 03:04:47;;;;;;;5.38;2.00;;;11.80;99.90;;;;;;5079271;28;20341;-64
2024/01/24 03:07:12;;;;;;;6.50;2.17;;;11.80;99.90;;;;;;5078726;28;20040;-64
2024/01/24 03:09:38;;;;;;;5.20;1.75;;;11.90;99.90;;;;;;5081283;28;20028;-63
2024/01/24 03:12:04;;;;;;;6.43;1.90;;;12.00;99.90;;;;;;5076138;28;20056;-64
2024/01/24 03:14:29;;;;;;;6.65;2.00;;;12.10;99.90;;;;;;5080422;28;20511;-63
2024/01/24 03:16:55;;;;;;;5.95;1.58;;;12.20;99.90;;;;;;5080350;28;20414;-65
2024/01/24 03:19:21;;;;;;;3.75;1.40;;;12.20;99.90;;;;;;5078239;28;20024;-64
2024/01/24 03:21:47;;;;;;;6.43;1.65;;;12.20;99.90;;;;;;5081052;28;20111;-64
2024/01/24 03:24:13;;;;;;;4.82;1.52;;;12.20;99.90;;;;;;5077479;28;20512;-64
2024/01/24 03:26:38;;;;;;;7.75;1.60;;;12.30;99.90;;;;;;5077657;28;20138;-64
2024/01/24 03:29:04;;;;;;;2.92;1.13;;;12.40;99.90;;;;;;5078667;28;20030;-63
2024/01/24 03:31:30;;;;;;;4.30;1.55;;;12.50;99.90;;;;;;5079585;28;20384;-63
2024/01/24 03:33:55;;;;;;;3.15;1.20;;;12.50;99.90;;;;;;5077598;28;20028;-63
2024/01/24 03:36:21;;;;;;;4.10;1.30;;;12.60;99.90;;;;;;5078815;28;20025;-63
2024/01/24 03:38:47;;;;;;;3.53;1.30;;;12.60;99.90;;;;;;5078612;28;20089;-63
2024/01/24 03:41:12;;;;;;;4.32;1.40;;;12.60;99.90;;;;;;5082902;28;20043;-63
2024/01/24 03:43:39;;;;;;;3.95;1.10;;;12.70;99.90;;;;;;5076837;28;20067;-63
2024/01/24 03:46:05;;;;;;;2.55;1.00;;;12.70;99.90;;;;;;5080833;28;20078;-63
2024/01/24 03:48:31;;;;;;;3.53;1.00;;;12.70;99.90;;;;;;5084809;28;20028;-64
2024/01/24 03:50:56;;;;;;;2.30;1.00;;;12.70;99.90;;;;;;5082521;28;20031;-63
2024/01/24 03:53:22;;;;;;;3.20;1.10;;;12.70;99.90;;;;;;5080051;28;20096;-64
2024/01/24 03:55:47;;;;;;;2.50;1.05;;;12.60;99.90;;;;;;5079618;28;20012;-64
2024/01/24 03:58:13;;;;;;;4.13;1.00;;;12.50;99.90;;;;;;5081807;28;20331;-63
2024/01/24 04:00:39;;;;;;;3.42;1.10;;;12.50;99.90;;;;;;5077122;28;20472;-64
2024/01/24 04:03:04;;;;;;;2.00;1.00;;;12.40;99.90;;;;;;5080707;28;20032;-63
2024/01/24 04:05:30;;;;;;;1.20;0.80;;;12.30;99.90;;;;;;5079488;28;20119;-63
2024/01/24 04:07:56;;;;;;;1.35;0.80;;;12.30;99.90;;;;;;5084911;28;20024;-63
2024/01/24 04:10:21;;;;;;;2.35;0.93;;;12.30;99.90;;;;;;5085515;28;20027;-63
2024/01/24 04:12:47;;;;;;;2.90;1.20;;;12.20;99.90;;;;;;5079436;28;20048;-64
2024/01/24 04:15:13;;;;;;;1.63;0.90;;;12.20;99.90;;;;;;5077871;28;20040;-63
2024/01/24 04:17:39;;;;;;;2.50;0.90;;;12.10;99.90;;;;;;5080266;28;20874;-63
2024/01/24 04:20:06;;;;;;;2.40;0.90;;;12.10;99.90;;;;;;5077072;28;20021;-63
2024/01/24 04:22:32;;;;;;;2.72;1.08;;;12.00;99.90;;;;;;5078225;28;20037;-63
2024/01/24 04:24:57;;;;;;;2.75;0.90;;;12.00;99.90;;;;;;5078104;28;20055;-63
2024/01/24 04:27:23;;;;;;;1.48;0.77;;;12.00;99.90;;;;;;5079021;28;20075;-63
2024/01/24 04:29:49;;;;;;;1.75;0.90;;;11.90;99.90;;;;;;5079087;28;20036;-63
2024/01/24 04:32:14;;;;;;;1.65;0.80;;;11.90;99.90;;;;;;5077907;28;20068;-63
2024/01/24 04:34:40;;;;;;;3.53;1.30;;;11.80;99.90;;;;;;5077669;28;20379;-63
2024/01/24 04:37:06;;;;;;;2.95;1.27;;;11.90;99.90;;;;;;5079248;28;20020;-63
2024/01/24 04:39:32;;;;;;;4.57;1.27;;;12.00;99.90;;;;;;5075482;28;20017;-62
2024/01/24 04:41:58;;;;;;;7.13;1.30;;;12.00;99.90;;;;;;5077499;28;20090;-64
2024/01/24 04:44:24;;;;;;;7.40;1.85;;;11.90;99.90;;;;;;5078561;28;20086;-63
2024/01/24 04:46:49;;;;;;;5.32;2.03;;;11.80;99.90;;;;;;5078441;28;20028;-63
2024/01/24 04:49:15;;;;;;;5.80;2.35;;;11.90;99.90;;;;;;5078527;28;20024;-62
2024/01/24 04:51:40;;;;;;;5.97;2.30;;;12.00;99.90;;;;;;5083845;28;20035;-63
2024/01/24 04:54:06;;;;;;;5.63;2.10;;;12.00;99.90;;;;;;5080296;28;20425;-63
2024/01/24 04:56:33;;;;;;;6.68;1.70;;;12.00;99.90;;;;;;5083937;28;20024;-62
2024/01/24 04:58:59;;;;;;;6.85;2.00;;;12.10;99.90;;;;;;5085126;28;20021;-63
2024/01/24 05:01:24;;;;;;;5.97;1.70;;;12.10;99.90;;;;;;5084900;28;20028;-63
2024/01/24 05:03:50;;;;;;;8.65;1.88;;;12.10;99.90;;;;;;5079525;28;20020;-63
2024/01/24 05:06:16;;;;;;;5.57;1.58;;;12.10;99.90;;;;;;5082209;28;20368;-63
2024/01/24 05:08:42;;;;;;;6.07;2.10;;;12.10;99.90;;;;;;5081883;28;20043;-63
2024/01/24 05:11:07;;;;;;;4.60;1.67;;;12.00;99.90;;;;;;5076531;28;20123;-63
2024/01/24 05:13:33;;;;;;;4.40;1.50;;;12.00;99.90;;;;;;5083773;28;20068;-62
2024/01/24 05:15:59;;;;;;;4.93;1.50;;;12.00;99.90;;;;;;5080824;28;20025;-63
2024/01/24 05:18:25;;;;;;;3.75;1.23;;;12.00;99.90;;;;;;5081500;28;20020;-63
2024/01/24 05:20:50;;;;;;;2.42;0.98;;;12.00;99.90;;;;;;5079747;28;20027;-63
2024/01/24 05:23:16;;;;;;;4.40;1.27;;;12.00;99.90;;;;;;5082160;28;20016;-63
2024/01/24 05:25:42;;;;;;;4.88;1.33;;;12.00;99.90;;;;;;5082045;28;20028;-63
2024/01/24 05:28:10;;;;;;;3.83;0.95;;;12.00;99.90;;;;;;5080652;28;20023;-63
2024/01/24 05:30:35;;;;;;;2.20;0.90;;;11.90;99.90;;;;;;5081272;28;20127;-63
2024/01/24 05:33:01;;;;;;;5.13;1.05;;;11.90;99.90;;;;;;5082047;28;20395;-63
2024/01/24 05:35:26;;;;;;;3.53;0.90;;;11.90;99.90;;;;;;5077126;28;20025;-63
2024/01/24 05:37:52;;;;;;;4.03;1.08;;;11.80;99.90;;;;;;5080919;28;20383;-63
2024/01/24 05:40:18;;;;;;;6.65;1.35;;;11.80;99.90;;;;;;5082608;28;20099;-63
2024/01/24 05:42:44;;;;;;;11.82;2.08;;;11.80;99.90;;;;;;5076921;28;20032;-63
2024/01/24 05:45:11;;;;;;;7.95;2.92;;;11.70;99.90;;;;;;5080878;28;20035;-63
2024/01/24 05:47:37;;;;;;;14.25;1.85;;;11.70;99.90;;;;;;5082546;28;20024;-63
2024/01/24 05:50:03;;;;;;;10.35;1.80;;;11.80;99.90;;;;;;5082610;28;20062;-63
2024/01/24 05:52:29;;;;;;;9.65;1.75;;;11.70;99.90;;;;;;5082822;28;20336;-63
2024/01/24 05:54:54;;;;;;;12.68;2.20;;;11.70;99.90;;;;;;5083234;28;20025;-64
2024/01/24 05:57:21;;;;;;;11.55;1.92;;;11.70;99.90;;;;;;5084867;28;20074;-63
2024/01/24 05:59:47;;;;;;;9.20;1.60;;;11.70;99.90;;;;;;5078559;28;20456;-63
2024/01/24 06:02:13;;;;;;;9.98;2.05;;;11.70;99.90;;;;;;5078567;28;20028;-64
2024/01/24 06:04:39;;;;;;;13.15;1.73;;;11.60;99.90;;;;;;5077518;28;20021;-63
2024/01/24 06:07:06;;;;;;;10.10;1.98;;;11.70;99.90;;;;;;5078982;28;20020;-63
2024/01/24 06:09:31;;;;;;;12.95;2.33;;;11.70;99.90;;;;;;5077912;28;20117;-64
2024/01/24 06:11:58;;;;;;;9.75;1.77;;;11.70;99.90;;;;;;5082246;28;20538;-63
2024/01/24 06:14:24;;;;;;;14.30;2.08;;;11.70;99.90;;;;;;5078913;28;20052;-63
2024/01/24 06:16:49;;;;;;;10.73;2.22;;;11.70;99.90;;;;;;5079062;28;20029;-63
2024/01/24 06:19:15;;;;;;;18.90;2.05;;;11.70;99.90;;;;;;5081142;28;20024;-63
2024/01/24 06:21:41;;;;;;;12.55;2.53;;;11.70;99.90;;;;;;5082290;28;20084;-63
2024/01/24 06:24:07;;;;;;;15.10;2.90;;;11.70;99.90;;;;;;5080951;28;20387;-63
2024/01/24 06:26:32;;;;;;;10.77;1.65;;;11.70;99.90;;;;;;5079621;28;20162;-63
2024/01/24 06:28:58;;;;;;;9.75;1.88;;;11.70;99.90;;;;;;5078794;28;20443;-63
2024/01/24 06:31:23;;;;;;;11.73;2.45;;;11.70;99.90;;;;;;5079023;28;20024;-63
2024/01/24 06:33:49;;;;;;;13.00;2.80;;;11.60;99.90;;;;;;5079313;28;20030;-62
2024/01/24 06:36:15;;;;;;;9.40;1.90;;;11.60;99.90;;;;;;5079260;28;20359;-63
2024/01/24 06:38:40;;;;;;;9.43;2.30;;;11.60;99.90;;;;;;5079439;28;20040;-63
2024/01/24 06:41:06;;;;;;;8.10;1.58;;;11.50;99.90;;;;;;5084019;28;20028;-63
2024/01/24 06:43:32;;;;;;;14.52;2.65;;;11.40;99.90;;;;;;5080346;28;20553;-63
2024/01/24 06:45:57;;;;;;;11.52;2.42;;;11.40;99.90;;;;;;5078181;28;20028;-62
2024/01/24 06:48:23;;;;;;;18.08;3.78;;;11.40;99.90;;;;;;5084465;28;20432;-63
2024/01/24 06:50:48;;;;;;;14.90;3.17;;;11.40;99.90;;;;;;5081612;28;20024;-63
2024/01/24 06:53:14;;;;;;;12.60;2.40;;;11.60;99.90;;;;;;5079166;28;20471;-62
2024/01/24 06:55:44;;;;;;;11.68;2.10;;;11.70;99.90;;;;;;5077706;28;20099;-62
2024/01/24 06:58:10;;;;;;;15.93;4.15;;;11.60;99.90;;;;;;5082641;28;20471;-62
2024/01/24 07:00:35;;;;;;;14.90;3.25;;;11.60;99.90;;;;;;5079312;28;20028;-63
2024/01/24 07:03:01;;;;;;;12.80;2.78;;;11.60;99.90;;;;;;5080724;28;20483;-63
2024/01/24 07:05:27;;;;;;;15.60;2.85;;;11.60;99.90;;;;;;5076268;28;20039;-63
2024/01/24 07:07:53;;;;;;;12.73;2.67;;;11.60;99.90;;;;;;5076260;28;20020;-63
2024/01/24 07:10:18;;;;;;;13.82;2.95;;;11.70;99.90;;;;;;5081005;28;20378;-63
2024/01/24 07:12:47;;;;;;;8.93;1.63;;;11.60;99.90;;;;;;5075437;28;20503;-63
2024/01/24 07:15:14;;;;;;;11.07;2.50;;;11.60;99.90;;;;;;5079056;28;20048;-63
2024/01/24 07:17:40;;;;;;;13.02;2.05;;;11.50;99.90;;;;;;5076922;28;20040;-63
2024/01/24 07:20:06;;;;;;;16.15;3.28;;;11.50;99.90;;;;;;5077842;28;20323;-63
2024/01/24 07:22:31;;;;;;;16.30;3.33;;;11.50;99.90;;;;;;5078896;28;20582;-63
2024/01/24 07:24:57;;;;;;;11.48;2.50;;;11.40;99.90;;;;;;5076229;28;20029;-63
2024/01/24 07:27:22;;;;;;;20.88;4.70;;;11.40;99.90;;;;;;5074515;28;20036;-63
2024/01/24 07:29:49;;;;;;;17.40;3.20;;;11.30;99.90;;;;;;5075205;28;20643;-63
2024/01/24 07:32:15;;;;;;;13.77;3.15;;;11.20;99.90;;;;;;5080897;28;20379;-63
2024/01/24 07:34:41;;;;;;;20.23;4.38;;;11.10;99.90;;;;;;5071658;28;20027;-63
2024/01/24 07:37:07;;;;;;;13.63;2.53;;;11.10;99.90;;;;;;5079554;28;20051;-63
2024/01/24 07:39:33;;;;;;;14.38;3.67;;;11.10;99.90;;;;;;5079063;28;20032;-64
2024/01/24 07:41:59;;;;;;;19.77;3.67;;;11.00;99.90;;;;;;5078932;28;20032;-63
2024/01/24 07:44:26;;;;;;;12.10;2.47;;;10.90;99.90;;;;;;5080960;28;20120;-64
2024/01/24 07:46:51;;;;;;;17.90;4.40;;;10.80;99.90;;;;;;5085016;28;20059;-63
2024/01/24 07:49:17;;;;;;;19.90;3.25;;;10.70;99.90;;;;;;5076794;28;20066;-63
2024/01/24 07:51:46;;;;;;;15.02;3.42;;;10.80;99.90;;;;;;5084331;28;20047;-63
2024/01/24 07:54:12;;;;;;;17.52;3.58;;;10.80;99.90;;;;;;5082684;28;20070;-63
2024/01/24 07:56:38;;;;;;;13.02;2.58;;;10.90;99.90;;;;;;5081002;28;20485;-63
2024/01/24 07:59:05;;;;;;;19.33;5.20;;;10.90;99.90;;;;;;5077304;28;20028;-63
2024/01/24 08:01:30;;;;;;;25.88;4.80;;;10.90;99.90;;;;;;5080581;28;20059;-63
2024/01/24 08:03:56;;;;;;;21.05;4.15;;;11.10;99.90;;;;;;5078971;28;20043;-63
2024/01/24 08:06:22;;;;;;;18.90;4.45;;;11.10;99.90;;;;;;5079016;28;20081;-63
2024/01/24 08:08:48;;;;;;;13.98;3.33;;;11.20;99.90;;;;;;5078491;28;20024;-64
2024/01/24 08:11:14;;;;;;;17.27;2.85;;;11.30;99.90;;;;;;5079080;28;20047;-64
2024/01/24 08:13:40;;;;;;;22.10;3.67;;;11.20;99.90;;;;;;5081146;28;20023;-64
2024/01/24 08:16:07;;;;;;;16.00;3.35;;;11.20;99.90;;;;;;5074179;28;20025;-64
2024/01/24 08:18:33;;;;;;;24.90;4.65;;;11.10;99.90;;;;;;5085026;28;20016;-64
2024/01/24 08:20:59;;;;;;;23.67;5.45;;;11.10;99.90;;;;;;5081541;28;20024;-64
2024/01/24 08:23:25;;;;;;;27.48;4.03;;;11.10;99.90;;;;;;5080840;28;20021;-64
2024/01/24 08:25:50;;;;;;;26.05;4.60;;;11.10;99.90;;;;;;5080369;28;20032;-64
2024/01/24 08:28:16;;;;;;;16.00;3.83;;;11.10;99.90;;;;;;5078584;28;20031;-64
2024/01/24 08:30:42;;;;;;;12.40;2.47;;;11.10;99.90;;;;;;5079572;28;20139;-64
2024/01/24 08:33:08;;;;;;;22.00;4.53;;;11.10;99.90;;;;;;5081252;28;20131;-64
2024/01/24 08:35:36;;;;;;;21.00;4.22;;;11.10;99.90;;;;;;5079967;28;20099;-64
2024/01/24 08:38:03;;;;;;;20.27;3.33;;;11.10;99.90;;;;;;5079055;28;20020;-64
2024/01/24 08:40:28;;;;;;;20.65;4.00;;;11.10;99.90;;;;;;5078835;28;20032;-64
2024/01/24 08:42:54;;;;;;;20.70;5.45;;;11.10;99.90;;;;;;5076602;28;20462;-65
2024/01/24 08:45:20;;;;;;;21.67;4.47;;;11.00;99.90;;;;;;5076674;28;20502;-64
2024/01/24 08:47:46;;;;;;;19.98;3.78;;;11.00;99.90;;;;;;5080085;28;20023;-64
2024/01/24 08:50:11;;;;;;;13.60;3.25;;;11.00;99.90;;;;;;5081006;28;20039;-64
2024/01/24 08:52:38;;;;;;;24.45;5.25;;;11.00;99.90;;;;;;5080673;28;20051;-64
2024/01/24 08:55:06;;;;;;;23.75;5.45;;;11.00;99.90;;;;;;5078802;28;20024;-64
2024/01/24 08:57:31;;;;;;;21.55;4.55;;;11.00;99.90;;;;;;5080751;28;20534;-64
2024/01/24 08:59:58;;;;;;;24.65;4.40;;;11.00;99.90;;;;;;5079096;28;20490;-64
2024/01/24 09:02:25;;;;;;;21.70;4.40;;;11.00;99.90;;;;;;5076553;28;20032;-64
2024/01/24 09:04:52;;;;;;;19.23;4.68;;;11.00;99.90;;;;;;5075136;28;20062;-64
2024/01/24 09:07:19;;;;;;;18.25;4.45;;;11.10;99.90;;;;;;5080360;28;20051;-64
2024/01/24 09:09:48;;;;;;;24.20;6.00;;;11.10;99.90;;;;;;5080535;28;20671;-65
2024/01/24 09:12:14;;;;;;;21.65;3.53;;;11.20;99.90;;;;;;5082707;28;20129;-64
2024/01/24 09:14:40;;;;;;;20.48;3.90;;;11.30;99.90;;;;;;5079024;28;20108;-64
2024/01/24 09:17:09;;;;;;;18.70;2.97;;;11.40;99.90;;;;;;5081614;28;20043;-64
2024/01/24 09:19:35;;;;;;;24.85;5.15;;;11.40;99.90;;;;;;5078010;28;20092;-63
2024/01/24 09:22:01;;;;;;;19.70;3.72;;;11.40;99.90;;;;;;5081671;28;20016;-64
2024/01/24 09:24:27;;;;;;;21.20;4.10;;;11.30;99.90;;;;;;5079656;28;20490;-63
2024/01/24 09:26:52;;;;;;;22.15;4.45;;;11.20;99.90;;;;;;5081347;28;20036;-64
2024/01/24 09:29:18;;;;;;;24.73;5.10;;;11.10;99.90;;;;;;5081633;28;20142;-64
2024/01/24 09:31:45;;;;;;;21.08;4.03;;;11.00;99.90;;;;;;5078897;28;20039;-64
2024/01/24 09:34:17;;;;;;;25.90;6.68;;;11.00;99.90;;;;;;5078758;28;20127;-64
2024/01/24 09:36:43;;;;;;;23.15;5.00;;;11.00;99.90;;;;;;5083443;28;20805;-63
2024/01/24 09:39:09;;;;;;;16.70;3.10;;;11.00;99.90;;;;;;5083716;28;20095;-64
2024/01/24 09:41:40;;;;;;;27.63;6.88;;;11.10;99.90;;;;;;5090030;28;20123;-64
2024/01/24 09:44:09;;;;;;;14.15;3.00;;;11.10;99.90;;;;;;5087945;28;20013;-63
2024/01/24 09:46:45;;;;;;;17.35;3.65;;;11.10;99.90;;;;;;5085320;28;20024;-63
2024/01/24 09:49:10;;;;;;;22.05;3.85;;;11.00;99.90;;;;;;5085841;28;20391;-63
2024/01/24 09:51:37;;;;;;;25.25;6.13;;;11.00;99.90;;;;;;5069466;28;20028;-63
2024/01/24 09:54:08;;;;;;;22.13;3.80;;;11.00;99.90;;;;;;5086975;28;20084;-63
2024/01/24 09:56:38;;;;;;;21.40;5.00;;;11.00;99.90;;;;;;5086045;28;20530;-63
2024/01/24 09:59:05;;;;;;;22.38;3.88;;;11.00;99.90;;;;;;5086714;28;20078;-63
2024/01/24 10:01:33;;;;;;;17.92;3.67;;;11.00;99.90;;;;;;5087201;28;20035;-63
2024/01/24 10:04:00;;;;;;;21.38;3.38;;;10.90;99.90;;;;;;5085514;28;20055;-63
2024/01/24 10:06:27;;;;;;;22.77;3.38;;;10.90;99.90;;;;;;5085980;28;20028;-63
2024/01/24 10:08:54;;;;;;;18.00;3.53;;;10.90;99.90;;;;;;5083460;28;20020;-63
2024/01/24 10:11:19;;;;;;;23.95;4.05;;;11.00;99.90;;;;;;5071299;28;20160;-63
2024/01/24 10:13:45;;;;;;;20.83;3.90;;;11.10;99.90;;;;;;5084047;28;20115;-63
2024/01/24 10:16:11;;;;;;;20.30;3.30;;;10.90;99.90;;;;;;5067439;28;20032;-63
2024/01/24 10:18:36;;;;;;;19.02;3.42;;;10.90;99.90;;;;;;5084400;28;20028;-65
2024/01/24 10:21:04;;;;;;;19.60;3.92;;;10.90;99.90;;;;;;5079510;28;20112;-63
2024/01/24 10:23:30;;;;;;;20.85;4.30;;;10.90;99.90;;;;;;5081909;28;20042;-63
2024/01/24 10:25:57;;;;;;;31.48;7.18;;;10.80;99.90;;;;;;5082152;28;20020;-63
2024/01/24 10:28:23;;;;;;;24.48;5.72;;;10.80;99.90;;;;;;5086941;28;20042;-62
2024/01/24 10:30:49;;;;;;;20.50;3.67;;;10.80;99.90;;;;;;5086017;28;20031;-62
2024/01/24 10:33:15;;;;;;;21.42;3.85;;;10.80;99.90;;;;;;5081338;28;20028;-62
2024/01/24 10:35:42;;;;;;;19.50;5.47;;;10.90;99.90;;;;;;5086143;28;20059;-62
2024/01/24 10:38:12;;;;;;;20.55;3.70;;;10.90;99.90;;;;;;5086321;28;20482;-62
2024/01/24 10:40:41;;;;;;;28.25;6.63;;;10.90;99.90;;;;;;5086813;28;20028;-63
2024/01/24 10:43:13;;;;;;;21.00;4.13;;;10.90;99.90;;;;;;5082665;28;20056;-62
2024/01/24 10:45:44;;;;;;;18.30;4.13;;;10.90;99.90;;;;;;5072686;28;20035;-62
2024/01/24 10:48:11;;;;;;;23.75;5.38;;;10.90;99.90;;;;;;5083505;28;20084;-63
2024/01/24 10:50:41;;;;;;;17.23;4.18;;;10.80;99.90;;;;;;5082130;28;20028;-63
2024/01/24 10:53:09;;;;;;;26.02;5.05;;;10.80;99.90;;;;;;5084641;28;20023;-62
2024/01/24 10:55:36;;;;;;;18.80;3.63;;;10.80;99.90;;;;;;5082500;28;20147;-63
2024/01/24 10:58:02;;;;;;;15.80;3.30;;;10.90;99.90;;;;;;5082805;28;20040;-63
2024/01/24 11:00:29;;;;;;;18.98;4.32;;;10.80;99.90;;;;;;5081196;28;20024;-63
2024/01/24 11:02:56;;;;;;;28.25;5.90;;;10.80;99.90;;;;;;5098157;28;20089;-62
2024/01/24 11:05:25;;;;;;;14.27;3.50;;;10.80;99.90;;;;;;5083675;28;20422;-62
2024/01/24 11:08:01;;;;;;;21.52;4.45;;;10.80;99.90;;;;;;5078989;28;20060;-62
2024/01/24 11:10:40;;;;;;;23.00;4.47;;;10.80;99.90;;;;;;5081708;28;20044;-62
2024/01/24 11:13:06;;;;;;;24.08;4.53;;;10.70;99.90;;;;;;5078750;28;20032;-62
2024/01/24 11:15:33;;;;;;;18.55;4.25;;;10.80;99.90;;;;;;5080466;28;20111;-62
2024/01/24 11:18:21;;;;;;;19.13;6.13;;;10.80;99.90;;;;;;5080848;28;20403;-62
2024/01/24 11:20:51;;;;;;;21.90;4.70;;;10.80;99.90;;;;;;5082536;28;20031;-63
2024/01/24 11:23:40;;;;;;;19.77;3.88;;;10.80;99.90;;;;;;5083109;28;20032;-63
2024/01/24 11:26:10;;;;;;;24.25;3.95;;;10.80;99.90;;;;;;5077500;28;20511;-63
2024/01/24 11:28:37;;;;;;;15.90;3.88;;;10.70;99.90;;;;;;5083630;28;20042;-63
2024/01/24 11:31:04;;;;;;;29.02;5.68;;;10.70;99.90;;;;;;5075193;28;20082;-63
2024/01/24 11:33:30;;;;;;;24.38;6.05;;;10.80;99.90;;;;;;5077799;28;20036;-63
2024/01/24 11:35:56;;;;;;;29.30;4.78;;;10.80;99.90;;;;;;5080278;28;20058;-62
2024/01/24 11:38:27;;;;;;;18.98;3.88;;;10.80;99.90;;;;;;5080376;28;20551;-63
2024/01/24 11:41:00;;;;;;;17.17;2.95;;;10.80;99.90;;;;;;5079784;28;20039;-64
2024/01/24 11:43:27;;;;;;;15.35;4.18;;;10.80;99.90;;;;;;5081044;28;20427;-64
2024/01/24 11:46:01;;;;;;;22.58;5.40;;;10.70;99.90;;;;;;5081823;28;20020;-64
2024/01/24 11:48:29;;;;;;;18.27;2.80;;;10.70;99.90;;;;;;5081044;28;20785;-64
2024/01/24 11:50:59;;;;;;;27.50;5.53;;;10.70;99.90;;;;;;5078306;28;20067;-64
2024/01/24 11:53:25;;;;;;;;;;;10.70;99.90;;;;;;5084566;28;20104;-64
2024/01/24 11:55:58;;;;;;;23.67;5.53;;;10.70;99.90;;;;;;5079204;28;19908;-63
2024/01/24 11:58:26;;;;;;;22.75;3.72;;;10.70;99.90;;;;;;5083679;28;20027;-64
2024/01/24 12:00:55;;;;;;;31.40;5.78;;;10.70;99.90;;;;;;5082804;28;20055;-64
2024/01/24 12:03:21;;;;;;;24.40;5.68;;;10.70;99.90;;;;;;5078541;28;20463;-63
2024/01/24 12:05:47;;;;;;;24.13;4.72;;;10.70;99.90;;;;;;5082030;28;20111;-64
2024/01/24 12:08:13;;;;;;;15.13;3.05;;;10.70;99.90;;;;;;5080780;28;20028;-63
2024/01/24 12:10:39;;;;;;;21.17;5.82;;;10.70;99.90;;;;;;5082655;28;20471;-64
2024/01/24 12:13:06;;;;;;;21.52;4.47;;;10.70;99.90;;;;;;5079338;28;20070;-64
2024/01/24 12:15:33;;;;;;;23.48;5.50;;;10.70;99.90;;;;;;5077836;28;20110;-64
2024/01/24 12:18:07;;;;;;;19.52;3.75;;;10.70;99.90;;;;;;5077945;28;20099;-64
2024/01/24 12:20:34;;;;;;;18.00;2.85;;;10.70;99.90;;;;;;5079393;28;20016;-64
2024/01/24 12:23:01;;;;;;;23.60;4.68;;;10.70;99.90;;;;;;5078027;28;20060;-64
2024/01/24 12:25:27;;;;;;;22.70;5.32;;;10.60;99.90;;;;;;5078044;28;20750;-63
2024/01/24 12:27:53;;;;;;;20.70;4.53;;;10.70;99.90;;;;;;5079813;28;20521;-63
2024/01/24 12:30:20;;;;;;;25.83;6.57;;;10.70;99.90;;;;;;5083329;28;20051;-63
2024/01/24 12:32:46;;;;;;;21.73;4.32;;;10.70;99.90;;;;;;5080318;28;20379;-63
2024/01/24 12:35:15;;;;;;;17.15;3.95;;;10.70;99.90;;;;;;5075907;28;20099;-64
2024/01/24 12:37:44;;;;;;;10.68;2.45;;;10.70;99.90;;;;;;5075125;28;20038;-67